Time;durP1;ratioP1;P1;durP2;ratioP2;P2;SDS_P1;SDS_P2;PMS_P1;PMS_P2;Temp;Humidity;BMP_temperature;BMP_pressure;BME280_temperature;BME280_humidity;BME280_pressure;Samples;Min_cycle;Max_cycle;Signal;HPM_P1;HPM_P2
2022/07/08 00:01:34;;;;;;;4.15;1.20;;;17.10;96.90;;;;;;4936499;29;20032;-77
2022/07/08 00:03:59;;;;;;;6.45;1.58;;;17.10;96.90;;;;;;4933251;29;20020;-77
2022/07/08 00:06:25;;;;;;;3.17;1.25;;;16.90;96.90;;;;;;4936475;29;20043;-77
2022/07/08 00:08:51;;;;;;;4.43;1.42;;;16.90;97.10;;;;;;4934282;29;20038;-77
2022/07/08 00:11:17;;;;;;;5.22;1.77;;;16.90;97.20;;;;;;4933963;29;20123;-76
2022/07/08 00:13:43;;;;;;;5.50;1.23;;;16.90;97.00;;;;;;4934935;29;20123;-76
2022/07/08 00:16:08;;;;;;;6.75;1.38;;;16.90;97.20;;;;;;4936437;29;20044;-76
2022/07/08 00:18:34;;;;;;;6.50;1.75;;;16.90;96.70;;;;;;4931366;29;20023;-76
2022/07/08 00:21:00;;;;;;;4.10;1.45;;;16.90;96.60;;;;;;4934886;29;20106;-77
2022/07/08 00:23:25;;;;;;;10.75;2.13;;;16.90;96.50;;;;;;4936623;29;20115;-76
2022/07/08 00:25:51;;;;;;;6.15;1.60;;;16.90;95.60;;;;;;4934713;29;20048;-76
2022/07/08 00:28:17;;;;;;;10.98;2.20;;;16.80;95.10;;;;;;4933007;29;20031;-77
2022/07/08 00:30:42;;;;;;;7.95;2.80;;;16.70;95.00;;;;;;4941162;29;20152;-76
2022/07/08 00:33:08;;;;;;;7.72;1.88;;;16.70;93.50;;;;;;4940882;29;20437;-77
2022/07/08 00:35:33;;;;;;;14.93;1.98;;;16.60;93.50;;;;;;4941622;29;20039;-78
2022/07/08 00:37:59;;;;;;;7.63;2.30;;;16.60;93.40;;;;;;4943081;29;20039;-78
2022/07/08 00:40:25;;;;;;;5.60;1.75;;;16.40;93.60;;;;;;4938593;29;20043;-77
2022/07/08 00:42:50;;;;;;;8.10;2.05;;;16.30;93.80;;;;;;4932852;29;20035;-76
2022/07/08 00:45:16;;;;;;;7.80;2.03;;;16.30;93.70;;;;;;4938635;29;20070;-76
2022/07/08 00:47:42;;;;;;;7.18;2.35;;;16.20;93.80;;;;;;4937820;29;20405;-76
2022/07/08 00:50:09;;;;;;;6.43;2.40;;;16.30;93.60;;;;;;4937028;29;20028;-75
2022/07/08 00:52:39;;;;;;;9.15;2.80;;;16.30;93.70;;;;;;4934864;28;20047;-73
2022/07/08 00:55:06;;;;;;;4.55;1.80;;;16.20;93.80;;;;;;4934923;29;20107;-75
2022/07/08 00:57:33;;;;;;;8.63;2.35;;;16.10;94.00;;;;;;4938099;29;20063;-76
2022/07/08 00:59:59;;;;;;;7.82;2.45;;;16.00;94.10;;;;;;4936328;29;20389;-76
2022/07/08 01:02:24;;;;;;;9.55;2.92;;;16.10;94.10;;;;;;4936878;29;20027;-76
2022/07/08 01:04:51;;;;;;;10.60;2.78;;;16.00;94.30;;;;;;4938490;29;20481;-76
2022/07/08 01:07:17;;;;;;;7.53;2.55;;;15.90;94.50;;;;;;4936598;29;20126;-76
2022/07/08 01:09:43;;;;;;;8.95;2.88;;;15.80;94.60;;;;;;4937236;29;20039;-76
2022/07/08 01:12:09;;;;;;;8.35;2.78;;;15.80;94.80;;;;;;4936980;29;20044;-76
2022/07/08 01:14:36;;;;;;;6.38;2.80;;;15.70;94.90;;;;;;4936631;29;20115;-76
2022/07/08 01:17:01;;;;;;;9.85;2.80;;;15.70;95.20;;;;;;4928455;29;20035;-77
2022/07/08 01:19:27;;;;;;;8.77;2.38;;;15.70;95.00;;;;;;4935499;29;20091;-77
2022/07/08 01:21:53;;;;;;;8.32;2.85;;;15.70;95.20;;;;;;4935763;29;20027;-77
2022/07/08 01:24:18;;;;;;;10.15;3.10;;;15.60;95.30;;;;;;4936226;29;20096;-74
2022/07/08 01:26:45;;;;;;;6.38;2.40;;;15.60;95.30;;;;;;4937357;29;20098;-77
2022/07/08 01:29:11;;;;;;;5.30;2.10;;;15.50;95.30;;;;;;4936408;29;20110;-77
2022/07/08 01:31:38;;;;;;;8.57;2.85;;;15.50;95.00;;;;;;4936178;29;20107;-76
2022/07/08 01:34:03;;;;;;;7.05;2.55;;;15.50;94.90;;;;;;4934018;29;20032;-77
2022/07/08 01:36:29;;;;;;;6.88;2.30;;;15.40;94.90;;;;;;4933975;29;20043;-77
2022/07/08 01:38:55;;;;;;;11.07;2.60;;;15.40;94.90;;;;;;4938083;29;20027;-78
2022/07/08 01:41:20;;;;;;;6.47;2.30;;;15.40;94.90;;;;;;4936898;29;20079;-77
2022/07/08 01:43:46;;;;;;;7.28;2.35;;;15.30;94.80;;;;;;4934999;29;20058;-76
2022/07/08 01:46:11;;;;;;;7.75;2.13;;;15.30;94.80;;;;;;4934768;29;20097;-77
2022/07/08 01:48:37;;;;;;;6.20;3.20;;;15.30;94.60;;;;;;4935242;29;20047;-76
2022/07/08 01:51:03;;;;;;;7.00;2.45;;;15.30;94.60;;;;;;4937537;29;20043;-77
2022/07/08 01:53:29;;;;;;;7.43;2.13;;;15.20;94.60;;;;;;4932643;29;20046;-76
2022/07/08 01:55:55;;;;;;;7.47;2.47;;;15.20;94.80;;;;;;4935701;29;20031;-77
2022/07/08 01:58:21;;;;;;;6.63;1.80;;;15.20;94.60;;;;;;4938619;29;20035;-77
2022/07/08 02:00:46;;;;;;;6.38;2.28;;;15.10;94.70;;;;;;4937436;29;20380;-77
2022/07/08 02:03:12;;;;;;;10.73;2.65;;;15.10;99.90;;;;;;4934654;29;20126;-77
2022/07/08 02:05:38;;;;;;;8.85;2.20;;;15.00;94.90;;;;;;4934697;29;20035;-78
2022/07/08 02:08:04;;;;;;;9.57;2.35;;;14.80;95.20;;;;;;4936315;29;20044;-76
2022/07/08 02:12:18;;;;;;;9.40;2.33;;;14.90;99.90;;;;;;4933743;29;20389;-77
2022/07/08 02:13:19;;;;;;;5.88;2.20;;;14.90;99.90;;;;;;4933686;29;20032;-76
2022/07/08 02:15:45;;;;;;;13.68;2.55;;;14.80;99.90;;;;;;4934872;29;20035;-76
2022/07/08 02:18:11;;;;;;;13.85;2.65;;;14.80;99.90;;;;;;4933612;29;20034;-77
2022/07/08 02:20:37;;;;;;;8.73;2.88;;;14.90;99.90;;;;;;4935831;29;20031;-77
2022/07/08 02:23:03;;;;;;;7.93;2.40;;;14.80;99.90;;;;;;4934773;29;20043;-78
2022/07/08 02:25:28;;;;;;;8.10;2.42;;;14.80;99.90;;;;;;4935189;29;20035;-77
2022/07/08 02:27:54;;;;;;;7.97;2.53;;;14.70;99.90;;;;;;4935614;29;20036;-78
2022/07/08 02:30:19;;;;;;;7.95;2.40;;;14.60;99.90;;;;;;4935439;29;20389;-76
2022/07/08 02:32:45;;;;;;;8.48;2.08;;;14.60;99.90;;;;;;4935176;29;20032;-75
2022/07/08 02:35:11;;;;;;;9.18;2.22;;;14.50;99.90;;;;;;4936146;29;20102;-75
2022/07/08 02:37:36;;;;;;;6.95;2.33;;;14.50;99.90;;;;;;4934089;29;20114;-75
2022/07/08 02:40:02;;;;;;;8.30;2.42;;;14.40;99.90;;;;;;4933150;29;20039;-73
2022/07/08 02:42:29;;;;;;;11.05;2.97;;;14.30;99.90;;;;;;4935330;29;20086;-76
2022/07/08 02:44:55;;;;;;;8.10;2.35;;;14.30;99.80;;;;;;4933037;29;20039;-75
2022/07/08 02:47:21;;;;;;;8.95;2.38;;;14.30;99.30;;;;;;4933880;29;20036;-73
2022/07/08 02:49:46;;;;;;;11.43;2.92;;;14.00;97.30;;;;;;4933466;29;20032;-77
2022/07/08 02:52:12;;;;;;;6.75;2.00;;;14.00;97.60;;;;;;4936025;29;20420;-76
2022/07/08 02:54:38;;;;;;;9.27;2.28;;;14.00;97.50;;;;;;4932600;29;20095;-77
2022/07/08 02:57:03;;;;;;;9.43;2.60;;;13.90;97.70;;;;;;4934286;29;20043;-76
2022/07/08 02:59:29;;;;;;;12.88;2.72;;;13.90;97.80;;;;;;4936005;29;20043;-75
2022/07/08 03:01:55;;;;;;;7.90;3.65;;;13.90;97.80;;;;;;4935925;29;20046;-75
2022/07/08 03:04:20;;;;;;;11.18;2.55;;;13.90;97.80;;;;;;4936547;29;20034;-76
2022/07/08 03:06:46;;;;;;;13.07;3.20;;;13.90;97.80;;;;;;4934298;29;20071;-77
2022/07/08 03:09:12;;;;;;;11.90;2.08;;;13.90;97.90;;;;;;4934495;29;20118;-76
2022/07/08 03:11:38;;;;;;;13.30;2.65;;;13.80;98.20;;;;;;4934551;29;20404;-77
2022/07/08 03:14:03;;;;;;;9.43;2.45;;;13.80;98.40;;;;;;4931958;29;20103;-77
2022/07/08 03:16:29;;;;;;;8.90;2.20;;;13.80;98.30;;;;;;4932420;29;20048;-76
2022/07/08 03:18:54;;;;;;;6.20;2.30;;;13.80;98.40;;;;;;4932601;29;20032;-76
2022/07/08 03:21:20;;;;;;;17.23;3.58;;;13.70;98.60;;;;;;4933975;29;20063;-75
2022/07/08 03:23:46;;;;;;;9.55;2.50;;;13.80;98.40;;;;;;4935910;29;20023;-76
2022/07/08 03:26:11;;;;;;;12.15;2.20;;;13.80;98.40;;;;;;4935101;29;20047;-75
2022/07/08 03:28:37;;;;;;;8.07;2.08;;;13.80;98.50;;;;;;4931717;29;20485;-77
2022/07/08 03:31:02;;;;;;;8.82;2.40;;;13.70;98.50;;;;;;4931630;29;20095;-76
2022/07/08 03:33:28;;;;;;;10.32;2.35;;;13.70;98.60;;;;;;4935515;29;20099;-77
2022/07/08 03:35:54;;;;;;;12.13;2.58;;;13.70;98.70;;;;;;4935908;29;20465;-76
2022/07/08 03:38:19;;;;;;;11.98;2.30;;;13.60;98.80;;;;;;4933448;29;20039;-76
2022/07/08 03:43:29;;;;;;;6.45;1.77;;;13.50;98.90;;;;;;4935669;29;20074;-76
2022/07/08 03:45:55;;;;;;;8.95;2.45;;;13.50;99.10;;;;;;4932655;29;20044;-77
2022/07/08 03:48:20;;;;;;;8.48;2.17;;;13.50;99.30;;;;;;4934034;29;20102;-76
2022/07/08 03:50:46;;;;;;;9.20;2.40;;;13.50;99.40;;;;;;4933056;29;20098;-76
2022/07/08 03:53:12;;;;;;;8.10;2.30;;;13.50;99.80;;;;;;4933549;29;20056;-76
2022/07/08 03:55:37;;;;;;;10.15;2.50;;;13.40;99.50;;;;;;4934404;29;20028;-76
2022/07/08 03:58:03;;;;;;;7.72;2.08;;;13.60;99.30;;;;;;4935855;29;20047;-77
2022/07/08 04:00:29;;;;;;;5.53;2.38;;;13.50;99.70;;;;;;4936402;29;20071;-76
2022/07/08 04:02:54;;;;;;;7.47;2.20;;;13.50;99.30;;;;;;4936881;29;20036;-77
2022/07/08 04:05:20;;;;;;;8.20;2.30;;;13.50;99.60;;;;;;4938503;29;20042;-76
2022/07/08 04:07:45;;;;;;;8.20;2.40;;;13.40;99.70;;;;;;4936088;29;20076;-77
2022/07/08 04:10:11;;;;;;;6.72;2.10;;;13.50;99.60;;;;;;4939373;29;20027;-76
2022/07/08 04:12:36;;;;;;;8.63;2.10;;;13.50;99.60;;;;;;4938380;29;20040;-75
2022/07/08 04:15:02;;;;;;;9.00;2.50;;;13.50;99.80;;;;;;4939712;29;20046;-76
2022/07/08 04:17:28;;;;;;;3.63;1.83;;;13.60;99.70;;;;;;4936164;29;20384;-76
2022/07/08 04:19:53;;;;;;;11.60;2.83;;;13.60;99.50;;;;;;4939463;29;20098;-77
2022/07/08 04:22:19;;;;;;;11.38;2.42;;;13.60;99.60;;;;;;4935502;29;20039;-77
2022/07/08 04:24:45;;;;;;;5.85;2.00;;;13.60;99.60;;;;;;4938445;29;20031;-76
2022/07/08 04:27:10;;;;;;;8.35;2.75;;;13.70;99.60;;;;;;4938177;29;20489;-74
2022/07/08 04:29:36;;;;;;;6.28;1.95;;;13.70;99.60;;;;;;4936315;29;20039;-74
2022/07/08 04:32:02;;;;;;;7.55;2.10;;;13.80;99.40;;;;;;4938678;29;20118;-75
2022/07/08 04:34:27;;;;;;;8.27;2.17;;;13.80;99.30;;;;;;4938151;29;20461;-75
2022/07/08 04:36:53;;;;;;;5.55;2.10;;;13.80;99.40;;;;;;4938850;29;20046;-76
2022/07/08 04:39:20;;;;;;;12.55;2.58;;;13.90;99.40;;;;;;4934610;29;20449;-77
2022/07/08 04:41:45;;;;;;;8.20;2.30;;;13.90;98.90;;;;;;4936123;29;20405;-77
2022/07/08 04:44:11;;;;;;;10.40;2.20;;;13.90;98.70;;;;;;4939314;29;20031;-77
2022/07/08 04:46:37;;;;;;;6.38;1.98;;;13.90;98.70;;;;;;4935733;29;20047;-77
2022/07/08 04:49:02;;;;;;;8.20;2.33;;;13.90;99.00;;;;;;4935221;29;20028;-77
2022/07/08 04:51:28;;;;;;;6.35;2.05;;;13.80;99.00;;;;;;4938837;29;20028;-77
2022/07/08 04:53:54;;;;;;;9.02;2.20;;;13.80;98.90;;;;;;4938617;29;20078;-76
2022/07/08 04:56:19;;;;;;;7.38;2.58;;;13.80;99.20;;;;;;4935453;29;20032;-77
2022/07/08 04:58:45;;;;;;;9.23;1.98;;;13.80;99.20;;;;;;4935349;29;20027;-77
2022/07/08 05:01:10;;;;;;;10.77;2.83;;;13.90;98.80;;;;;;4939228;29;20489;-76
2022/07/08 05:03:36;;;;;;;7.68;2.30;;;13.90;98.80;;;;;;4936873;29;20023;-77
2022/07/08 05:06:02;;;;;;;5.10;2.13;;;14.00;98.80;;;;;;4938911;29;20046;-77
2022/07/08 05:08:27;;;;;;;6.53;1.98;;;14.00;98.40;;;;;;4937907;29;20606;-76
2022/07/08 05:10:53;;;;;;;3.28;1.75;;;14.10;98.50;;;;;;4937263;29;20031;-77
2022/07/08 05:13:19;;;;;;;10.10;2.42;;;14.20;98.80;;;;;;4935853;29;20090;-78
2022/07/08 05:15:44;;;;;;;7.95;1.92;;;14.30;98.70;;;;;;4937209;29;20059;-75
2022/07/08 05:18:10;;;;;;;6.93;2.10;;;14.50;98.90;;;;;;4934625;29;20042;-76
2022/07/08 05:20:36;;;;;;;10.40;1.70;;;14.60;98.10;;;;;;4935727;29;20023;-76
2022/07/08 05:23:02;;;;;;;10.50;2.65;;;14.70;97.70;;;;;;4936961;29;20036;-75
2022/07/08 05:25:28;;;;;;;8.75;2.00;;;14.90;96.90;;;;;;4936943;29;20028;-75
2022/07/08 05:27:53;;;;;;;9.02;2.65;;;14.90;97.40;;;;;;4938858;29;20126;-74
2022/07/08 05:30:19;;;;;;;7.28;2.85;;;15.10;96.20;;;;;;4931619;29;20039;-75
2022/07/08 05:32:45;;;;;;;8.40;2.03;;;15.20;96.10;;;;;;4939041;29;20519;-74
2022/07/08 05:35:11;;;;;;;12.73;2.40;;;15.20;96.30;;;;;;4936428;29;20031;-73
2022/07/08 05:37:38;;;;;;;9.20;2.25;;;15.20;95.90;;;;;;4932831;29;20038;-74
2022/07/08 05:40:10;;;;;;;9.95;2.13;;;15.20;95.90;;;;;;4936373;29;20047;-73
2022/07/08 05:42:36;;;;;;;9.98;1.98;;;15.20;95.80;;;;;;4937776;29;20059;-73
2022/07/08 05:45:02;;;;;;;12.50;2.30;;;15.30;95.50;;;;;;4942022;29;20047;-73
2022/07/08 05:47:28;;;;;;;6.53;1.90;;;15.20;96.00;;;;;;4936877;29;20046;-71
2022/07/08 05:49:53;;;;;;;9.30;2.10;;;15.30;95.80;;;;;;4934220;29;20031;-72
2022/07/08 05:52:19;;;;;;;5.82;1.60;;;15.40;95.00;;;;;;4937917;29;20127;-71
2022/07/08 05:54:48;;;;;;;8.80;2.10;;;15.30;94.90;;;;;;4944439;29;20058;-72
2022/07/08 05:57:14;;;;;;;8.10;2.13;;;15.40;95.00;;;;;;4938100;29;20062;-73
2022/07/08 05:59:43;;;;;;;7.97;2.38;;;15.40;95.00;;;;;;4937834;29;20793;-71
2022/07/08 06:02:10;;;;;;;11.13;2.15;;;15.40;95.30;;;;;;4936466;29;20040;-71
2022/07/08 06:04:36;;;;;;;12.48;2.30;;;15.60;95.30;;;;;;4939223;29;20433;-69
2022/07/08 06:07:02;;;;;;;8.70;2.17;;;15.60;95.00;;;;;;4937390;29;20036;-70
2022/07/08 06:09:28;;;;;;;10.43;2.50;;;15.80;94.40;;;;;;4936194;29;20030;-70
2022/07/08 06:11:53;;;;;;;5.88;1.92;;;15.90;94.10;;;;;;4941760;29;20469;-70
2022/07/08 06:14:19;;;;;;;7.85;1.70;;;15.90;93.90;;;;;;4942998;29;20040;-70
2022/07/08 06:16:48;;;;;;;6.05;2.33;;;15.90;93.90;;;;;;4934120;29;20043;-69
2022/07/08 06:19:17;;;;;;;8.02;2.17;;;15.90;94.00;;;;;;4936332;29;20461;-70
2022/07/08 06:21:43;;;;;;;6.97;1.88;;;15.90;94.00;;;;;;4934948;29;20114;-70
2022/07/08 06:24:09;;;;;;;8.73;1.98;;;15.80;93.80;;;;;;4938900;29;20074;-70
2022/07/08 06:26:37;;;;;;;9.43;2.17;;;15.80;93.70;;;;;;4936258;29;20141;-71
2022/07/08 06:29:03;;;;;;;7.32;2.03;;;15.70;93.80;;;;;;4935127;29;20039;-70
2022/07/08 06:31:29;;;;;;;7.82;2.10;;;15.60;93.80;;;;;;4939575;29;20028;-71
2022/07/08 06:33:58;;;;;;;8.80;2.25;;;15.60;93.70;;;;;;4936323;29;20031;-70
2022/07/08 06:36:24;;;;;;;5.67;1.97;;;15.60;93.90;;;;;;4931574;29;20075;-70
2022/07/08 06:38:51;;;;;;;7.20;1.70;;;15.60;93.80;;;;;;4932769;29;20032;-72
2022/07/08 06:41:17;;;;;;;5.05;1.52;;;15.50;94.00;;;;;;4936472;29;20370;-70
2022/07/08 06:43:44;;;;;;;10.27;2.35;;;15.60;93.80;;;;;;4942844;29;20536;-69
2022/07/08 06:46:09;;;;;;;8.25;1.95;;;15.60;93.40;;;;;;4936234;29;20087;-72
2022/07/08 06:48:35;;;;;;;9.20;1.63;;;15.60;93.80;;;;;;4942801;29;20035;-71
2022/07/08 06:51:01;;;;;;;9.68;1.77;;;15.70;92.60;;;;;;4933561;29;20027;-72
2022/07/08 06:53:26;;;;;;;9.05;1.70;;;15.90;92.20;;;;;;4936185;29;20481;-72
2022/07/08 06:55:52;;;;;;;11.35;1.67;;;16.00;92.60;;;;;;4932347;29;20032;-73
2022/07/08 06:58:19;;;;;;;8.63;1.42;;;16.20;92.20;;;;;;4935810;29;20027;-71
2022/07/08 07:00:44;;;;;;;5.80;1.42;;;16.40;91.40;;;;;;4927567;29;20083;-73
2022/07/08 07:03:10;;;;;;;5.30;1.50;;;16.70;91.20;;;;;;4938465;29;20465;-68
2022/07/08 07:05:36;;;;;;;6.15;1.75;;;16.90;91.00;;;;;;4934577;29;20031;-68
2022/07/08 07:08:01;;;;;;;3.88;1.30;;;17.00;90.70;;;;;;4939054;29;20047;-72
2022/07/08 07:10:27;;;;;;;17.42;2.75;;;17.10;90.50;;;;;;4943439;29;20047;-70
2022/07/08 07:12:53;;;;;;;6.57;1.63;;;17.20;89.20;;;;;;4937012;29;20027;-71
2022/07/08 07:15:18;;;;;;;5.30;1.98;;;17.10;90.10;;;;;;4931556;29;20524;-72
2022/07/08 07:17:44;;;;;;;4.70;1.55;;;17.10;89.70;;;;;;4932846;29;20030;-71
2022/07/08 07:20:10;;;;;;;8.75;1.52;;;17.10;89.80;;;;;;4933238;29;20031;-71
2022/07/08 07:22:36;;;;;;;5.25;1.48;;;17.20;88.90;;;;;;4933074;29;20031;-77
2022/07/08 07:25:02;;;;;;;7.43;1.67;;;17.30;87.90;;;;;;4935320;29;20477;-71
2022/07/08 07:27:27;;;;;;;6.68;1.50;;;17.50;87.70;;;;;;4941938;29;20091;-70
2022/07/08 07:29:53;;;;;;;6.50;1.58;;;17.70;86.90;;;;;;4935758;29;20028;-70
2022/07/08 07:32:18;;;;;;;6.82;1.50;;;17.90;86.30;;;;;;4934630;29;20417;-70
2022/07/08 07:34:44;;;;;;;6.22;1.55;;;17.90;86.80;;;;;;4941786;29;20027;-70
2022/07/08 07:37:10;;;;;;;7.22;1.52;;;17.90;85.10;;;;;;4927068;29;20044;-70
2022/07/08 07:39:35;;;;;;;4.07;1.40;;;17.80;85.70;;;;;;4914447;29;20110;-68
2022/07/08 07:42:01;;;;;;;5.10;1.60;;;17.80;85.60;;;;;;4934224;29;20032;-70
2022/07/08 07:44:27;;;;;;;7.10;1.30;;;17.70;86.20;;;;;;4932471;29;20039;-70
2022/07/08 07:46:52;;;;;;;8.02;1.63;;;17.50;86.40;;;;;;4934558;29;20063;-71
2022/07/08 07:49:18;;;;;;;3.38;1.50;;;17.60;85.90;;;;;;4936450;29;20032;-72
2022/07/08 07:51:44;;;;;;;6.18;1.45;;;17.60;87.10;;;;;;4935082;29;20441;-71
2022/07/08 07:54:09;;;;;;;4.00;1.40;;;17.60;87.20;;;;;;4937829;29;20028;-71
2022/07/08 07:56:35;;;;;;;4.72;1.77;;;17.80;85.90;;;;;;4933858;29;20051;-71
2022/07/08 07:59:03;;;;;;;5.57;1.58;;;18.00;86.00;;;;;;4933741;29;20082;-71
2022/07/08 08:01:28;;;;;;;7.95;1.80;;;18.20;83.50;;;;;;4938759;29;20119;-70
2022/07/08 08:03:54;;;;;;;7.97;1.60;;;18.20;83.70;;;;;;4934322;29;20959;-70
2022/07/08 08:06:19;;;;;;;6.60;1.33;;;18.10;83.50;;;;;;4936131;29;20385;-70
2022/07/08 08:08:45;;;;;;;7.50;1.60;;;18.10;83.70;;;;;;4942715;29;20051;-71
2022/07/08 08:11:11;;;;;;;3.65;1.27;;;18.20;83.00;;;;;;4939258;29;20040;-71
2022/07/08 08:13:36;;;;;;;6.65;1.20;;;18.20;83.60;;;;;;4933290;29;20028;-70
2022/07/08 08:16:02;;;;;;;3.40;1.35;;;18.20;82.80;;;;;;4933437;29;20043;-70
2022/07/08 08:18:28;;;;;;;6.95;1.55;;;18.30;82.50;;;;;;4933711;29;20031;-70
2022/07/08 08:20:54;;;;;;;4.55;1.23;;;18.30;82.10;;;;;;4933567;29;20032;-71
2022/07/08 08:23:19;;;;;;;5.60;1.20;;;18.30;81.70;;;;;;4934535;29;20381;-71
2022/07/08 08:25:45;;;;;;;8.15;1.95;;;18.30;82.50;;;;;;4935317;29;20365;-70
2022/07/08 08:28:11;;;;;;;11.10;1.50;;;18.30;83.00;;;;;;4939164;29;20039;-72
2022/07/08 08:30:37;;;;;;;2.67;1.10;;;18.40;82.60;;;;;;4937384;29;20042;-69
2022/07/08 08:33:02;;;;;;;7.15;1.65;;;18.40;82.10;;;;;;4934756;29;20055;-71
2022/07/08 08:35:28;;;;;;;6.47;1.45;;;18.50;81.10;;;;;;4934508;29;20470;-71
2022/07/08 08:37:54;;;;;;;5.57;1.40;;;18.50;80.50;;;;;;4916289;29;20179;-71
2022/07/08 08:40:24;;;;;;;8.63;1.83;;;18.50;81.10;;;;;;4938675;29;20032;-72
2022/07/08 08:42:49;;;;;;;4.35;1.30;;;18.50;80.10;;;;;;4933651;29;20039;-71
2022/07/08 08:45:15;;;;;;;5.90;1.45;;;18.50;80.40;;;;;;4928725;29;20027;-71
2022/07/08 08:47:43;;;;;;;5.72;1.25;;;18.60;80.80;;;;;;4945295;29;20039;-71
2022/07/08 08:52:56;;;;;;;9.07;2.15;;;18.80;80.40;;;;;;4933190;28;20051;-71
2022/07/08 08:55:29;;;;;;;6.95;1.40;;;18.90;79.40;;;;;;4936444;29;20035;-71
2022/07/08 08:58:02;;;;;;;6.45;1.48;;;19.00;78.30;;;;;;4937904;29;20436;-70
2022/07/08 09:00:30;;;;;;;4.22;1.08;;;19.00;78.60;;;;;;4934824;29;20469;-71
2022/07/08 09:02:57;;;;;;;3.97;1.00;;;19.00;78.10;;;;;;4935913;29;20031;-71
2022/07/08 09:05:25;;;;;;;5.93;1.60;;;19.00;78.60;;;;;;4939901;29;20102;-73
2022/07/08 09:07:51;;;;;;;9.20;1.70;;;18.90;79.00;;;;;;4939096;29;20060;-72
2022/07/08 09:10:18;;;;;;;5.32;1.45;;;19.00;79.80;;;;;;4939511;29;20144;-71
2022/07/08 09:13:05;;;;;;;7.63;0.98;;;19.10;78.80;;;;;;4940256;29;20503;-71
2022/07/08 09:15:34;;;;;;;12.85;1.67;;;19.30;78.70;;;;;;4941691;29;20095;-71
2022/07/08 09:18:01;;;;;;;4.10;1.13;;;19.40;77.40;;;;;;4936969;29;20126;-72
2022/07/08 09:20:43;;;;;;;4.28;1.30;;;19.70;76.10;;;;;;4939416;29;20034;-72
2022/07/08 09:23:29;;;;;;;4.55;1.35;;;19.90;76.30;;;;;;4942952;29;20031;-72
2022/07/08 09:26:03;;;;;;;7.90;1.30;;;20.00;76.00;;;;;;4933123;29;20474;-71
2022/07/08 09:28:34;;;;;;;7.72;1.63;;;20.30;75.80;;;;;;4937647;29;20481;-71
2022/07/08 09:31:02;;;;;;;3.72;1.40;;;20.50;75.50;;;;;;4935248;29;20287;-72
2022/07/08 09:33:28;;;;;;;6.80;1.67;;;20.50;74.80;;;;;;4939136;29;20465;-71
2022/07/08 09:36:00;;;;;;;4.25;1.55;;;20.40;75.60;;;;;;4935271;29;20027;-72
2022/07/08 09:38:35;;;;;;;4.75;1.13;;;20.20;75.60;;;;;;4936554;29;20027;-72
2022/07/08 09:41:03;;;;;;;4.22;1.10;;;20.00;75.80;;;;;;4937196;29;20102;-71
2022/07/08 09:43:29;;;;;;;7.10;1.73;;;19.70;76.50;;;;;;4936806;29;20043;-71
2022/07/08 09:46:06;;;;;;;3.67;1.10;;;19.70;75.90;;;;;;4936367;29;20036;-72
2022/07/08 09:48:32;;;;;;;5.25;1.40;;;19.80;76.30;;;;;;4938648;29;20118;-72
2022/07/08 09:51:00;;;;;;;5.43;1.45;;;19.90;75.90;;;;;;4935826;29;20028;-72
2022/07/08 09:53:27;;;;;;;9.30;1.73;;;20.00;75.80;;;;;;4921414;29;20378;-72
2022/07/08 09:55:54;;;;;;;3.72;1.42;;;19.80;76.00;;;;;;4928388;29;20393;-73
2022/07/08 09:58:23;;;;;;;5.22;1.30;;;19.70;75.70;;;;;;4932832;29;20054;-70
2022/07/08 10:00:53;;;;;;;4.93;1.30;;;19.60;76.80;;;;;;4931183;29;20035;-70
2022/07/08 10:03:20;;;;;;;5.05;1.67;;;19.40;75.00;;;;;;4936257;29;20051;-72
2022/07/08 10:05:46;;;;;;;3.78;1.05;;;19.30;76.60;;;;;;4938391;29;20462;-69
2022/07/08 10:08:13;;;;;;;4.25;1.23;;;19.40;75.40;;;;;;4935539;29;20039;-72
2022/07/08 10:10:45;;;;;;;6.25;1.38;;;19.60;75.90;;;;;;4933231;29;20315;-70
2022/07/08 10:13:11;;;;;;;9.65;1.65;;;19.60;76.30;;;;;;4942243;29;20154;-71
2022/07/08 10:15:37;;;;;;;3.63;1.40;;;19.30;76.50;;;;;;4934849;29;20601;-71
2022/07/08 10:18:12;;;;;;;5.43;1.20;;;19.00;76.10;;;;;;4932914;29;20500;-73
2022/07/08 10:20:41;;;;;;;10.55;1.25;;;19.00;76.20;;;;;;4930731;28;20039;-71
2022/07/08 10:23:11;;;;;;;5.03;1.30;;;19.20;76.40;;;;;;4928843;28;20114;-72
2022/07/08 10:25:37;;;;;;;6.47;1.30;;;19.40;75.60;;;;;;4929861;29;20031;-75
2022/07/08 10:28:10;;;;;;;5.88;1.60;;;19.70;75.10;;;;;;4938306;29;20062;-72
2022/07/08 10:31:25;;;;;;;5.82;1.27;;;19.90;73.30;;;;;;4934385;29;20027;-72
2022/07/08 10:33:58;;;;;;;12.00;1.48;;;20.10;73.80;;;;;;4934430;28;20039;-72
2022/07/08 10:36:24;;;;;;;5.72;1.40;;;20.40;73.30;;;;;;4934028;29;20062;-72
2022/07/08 10:38:53;;;;;;;6.40;1.50;;;20.80;73.30;;;;;;4929603;28;20114;-70
2022/07/08 10:41:20;;;;;;;4.00;1.48;;;21.20;81.30;;;;;;4934911;29;20099;-74
2022/07/08 10:43:53;;;;;;;5.57;1.70;;;21.00;81.80;;;;;;4937068;29;20027;-72
2022/07/08 10:46:20;;;;;;;8.75;2.03;;;20.70;82.10;;;;;;4936296;29;20043;-73
2022/07/08 10:48:54;;;;;;;5.93;1.50;;;20.60;75.00;;;;;;4933143;29;20119;-71
2022/07/08 10:51:19;;;;;;;4.75;1.80;;;20.80;74.60;;;;;;4935104;28;20067;-72
2022/07/08 10:53:51;;;;;;;6.57;1.35;;;20.70;72.10;;;;;;4938750;29;20059;-74
2022/07/08 10:56:53;;;;;;;6.90;1.75;;;20.70;73.20;;;;;;4931805;29;20039;-73
2022/07/08 10:59:35;;;;;;;6.38;1.75;;;20.80;72.10;;;;;;4943013;29;20042;-73
2022/07/08 11:02:05;;;;;;;3.53;1.42;;;20.90;74.50;;;;;;4930625;29;20548;-72
2022/07/08 11:04:33;;;;;;;3.85;1.60;;;21.20;78.20;;;;;;4932002;29;20028;-73
2022/07/08 11:07:17;;;;;;;7.85;1.40;;;21.30;81.50;;;;;;4934030;29;20031;-72
2022/07/08 11:09:44;;;;;;;3.90;0.85;;;21.60;83.30;;;;;;4933175;29;20039;-70
2022/07/08 11:12:14;;;;;;;8.23;1.30;;;21.70;87.30;;;;;;4938213;29;20031;-71
2022/07/08 11:14:45;;;;;;;5.90;1.20;;;21.60;87.60;;;;;;4938508;29;20028;-73
2022/07/08 11:17:14;;;;;;;8.90;2.75;;;21.70;88.60;;;;;;4938032;29;20038;-72
2022/07/08 11:19:41;;;;;;;4.47;1.20;;;21.80;91.70;;;;;;4936622;29;20473;-72
2022/07/08 11:22:08;;;;;;;5.85;1.73;;;21.90;91.40;;;;;;4933197;29;20035;-73
2022/07/08 11:24:35;;;;;;;6.95;1.50;;;21.80;91.60;;;;;;4935654;29;20024;-73
2022/07/08 11:27:03;;;;;;;9.68;1.90;;;;;;;;;;4932924;29;20043;-73
2022/07/08 11:29:29;;;;;;;3.38;1.00;;;;;;;;;;4934450;29;20028;-73
2022/07/08 11:31:57;;;;;;;10.00;1.50;;;;;;;;;;4933960;29;20410;-73
2022/07/08 11:34:24;;;;;;;5.25;1.10;;;;;;;;;;4936811;29;20063;-77
2022/07/08 11:37:00;;;;;;;6.72;1.83;;;;;;;;;;4937631;29;20402;-73
2022/07/08 11:39:26;;;;;;;4.38;1.50;;;22.90;66.60;;;;;;4934558;29;20051;-74
2022/07/08 11:41:53;;;;;;;2.58;1.08;;;22.70;75.60;;;;;;4933916;29;20036;-71
2022/07/08 11:44:21;;;;;;;4.85;1.20;;;22.70;77.60;;;;;;4936052;29;20023;-75
2022/07/08 11:46:50;;;;;;;4.88;1.63;;;22.80;82.10;;;;;;4933819;29;20054;-73
2022/07/08 11:49:17;;;;;;;18.48;1.67;;;22.90;83.50;;;;;;4933849;29;20079;-72
2022/07/08 11:51:56;;;;;;;3.05;1.25;;;22.90;67.70;;;;;;4927946;29;20047;-82
2022/07/08 11:54:23;;;;;;;4.25;1.00;;;23.10;67.60;;;;;;4933530;29;20421;-77
2022/07/08 11:56:53;;;;;;;3.25;0.90;;;23.10;66.60;;;;;;4931569;29;20036;-73
2022/07/08 11:59:31;;;;;;;3.58;1.15;;;23.00;65.90;;;;;;4939816;29;20031;-73
2022/07/08 12:01:58;;;;;;;5.13;1.02;;;23.10;66.10;;;;;;4936144;29;20055;-72
2022/07/08 12:04:24;;;;;;;4.40;1.13;;;23.40;66.90;;;;;;4934741;29;20070;-72
2022/07/08 12:07:01;;;;;;;3.90;1.10;;;23.70;65.40;;;;;;4935415;29;20035;-72
2022/07/08 12:09:28;;;;;;;4.30;1.30;;;23.90;64.30;;;;;;4936670;29;20388;-71
2022/07/08 12:11:56;;;;;;;3.30;1.00;;;24.00;64.10;;;;;;4935280;29;20032;-73
2022/07/08 12:14:23;;;;;;;3.10;1.13;;;24.10;64.00;;;;;;4934027;29;20070;-73
2022/07/08 12:16:51;;;;;;;4.38;1.17;;;24.10;63.60;;;;;;4933283;29;20031;-72
2022/07/08 12:19:29;;;;;;;3.28;1.23;;;24.10;63.50;;;;;;4937114;29;20040;-72
2022/07/08 12:21:59;;;;;;;5.07;1.23;;;24.00;64.30;;;;;;4932268;29;20042;-73
2022/07/08 12:24:32;;;;;;;5.13;1.15;;;24.00;64.40;;;;;;4936975;29;20050;-72
2022/07/08 12:27:00;;;;;;;6.97;1.33;;;24.10;64.00;;;;;;4936470;29;20043;-72
2022/07/08 12:29:27;;;;;;;2.78;1.20;;;24.00;64.20;;;;;;4937239;29;20027;-72
2022/07/08 12:31:54;;;;;;;5.03;1.35;;;23.90;65.20;;;;;;4938137;29;20098;-73
2022/07/08 12:34:24;;;;;;;4.85;1.17;;;24.10;64.70;;;;;;4938791;29;20031;-70
2022/07/08 12:36:50;;;;;;;7.70;1.08;;;24.30;65.50;;;;;;4937015;29;20035;-71
2022/07/08 12:39:20;;;;;;;8.50;1.30;;;24.40;63.90;;;;;;4940486;29;20047;-73
2022/07/08 12:42:06;;;;;;;5.60;1.15;;;24.10;62.80;;;;;;4937260;29;20436;-70
2022/07/08 12:44:42;;;;;;;5.53;0.93;;;23.70;64.00;;;;;;4941218;29;20043;-72
2022/07/08 12:47:12;;;;;;;4.95;1.50;;;23.40;64.70;;;;;;4931953;29;20040;-71
2022/07/08 12:49:43;;;;;;;4.13;1.15;;;23.30;64.90;;;;;;4937928;29;20062;-71
2022/07/08 12:52:10;;;;;;;7.50;1.10;;;23.40;65.00;;;;;;4936491;29;20122;-71
2022/07/08 12:54:38;;;;;;;2.10;1.10;;;23.60;63.90;;;;;;4936550;29;20032;-71